Minneapolis-St Paul International/Wold-Chamberlain Airport
KMSP : now visible

Airfield :











YOU CAN JOIN US ON...

 
LOGIN :

Register | Disclaimer

   EN    FR    IT 

 









Legend :    VFR   Marginal VFR   IFR   Intensive IFR   Very Intensive IFR
Visi :
Ceiling :
>= 8 km
>= 3000ft
5 to 8 km
1000 to 3000 ft
1500m to 5 km
500 to 1000 ft
800 to 1500m
200 to 500 ft
< 800m
< 200 ft
Symbols :   Thunderstorms  Fog  Heavy snow  Heavy precipitations  Wind > 20 kt







- Airport Elevation : 841 ft
- IATA code : MSP


KMSP - Minneapolis-St Paul International/Wold-Chamberlain

CURRENT METAR :
  • 162153Z 16010KT 10SM BKN250 29/18 A2998 RMK AO2 SLP146 T02940178

EXPIRED METARs :
  • 162053Z 18013G20KT 10SM BKN250 31/18 A2998 RMK AO2 SLP148 T03060183 56011
  • 161953Z 15013KT 10SM BKN250 30/17 A2999 RMK AO2 SLP150 T03000172

TAF KMSP
Valid from the 16 at 21:00 until the 18 at 00:00 UTC


162058Z 1621/1724 16013G20KT P6SM BKN250
FM162300 16010KT P6SM BKN250
FM170500 16009KT P6SM BKN200 WS020/20040KT
FM170900 16011KT P6SM BKN150
FM171600 16014G24KT P6SM SCT150
No reported NOTAMs for that airfield.



MET'MAP, your aeronautical weather chart ! - Copyright ORBIFLY December 2007 - Disclaimer

ORBIFLY MET'MAP TEAM :

Programming & Development : Alexandra Zaïnal
Concept & Development : Baudouin d'Aumeries
Co-Development & Prog : Marc-Olivier Méhu
Technical & hardware support : Manuel Goepfert

Contact : metmap@orbifly.com




SOURCES & CREDITS :

   NOAA       Earth
Advisory